Flight Track Log - Related Links

Times and Time Zones

All times are in EDT time to prevent confusion due to time zone crossing. See the SKW6528 flight status page for this flight to view local times or setup timezone preferences in your user account.

Time Position Orientation Groundspeed Altitude Reporting Facility
EDT Latitude Longitude Course Direction KTS MPH feet Rate Location/Type
Sun 08:54:43 AM 35.4594 -119.0928 132° Southeast 248 285 4,900  Level Los Angeles Center
Sun 08:55:00 AM 35.1739 -118.7405 141° Southeast  Level FlightAware Approximate
Sun 08:55:43 AM 35.4464 -119.0153 102° East 281 323 7,000  Level Los Angeles Center
Sun 08:56:00 AM 35.0815 -118.6423 136° Southeast  Level FlightAware Approximate
Sun 08:56:44 AM 35.3764 -118.9722 153° Southeast 282 325 9,200  Level Los Angeles Center
Sun 08:57:00 AM 34.9959 -118.5356 129° Southeast  Level FlightAware Approximate
Sun 08:57:44 AM 35.3131 -118.9011 137° Southeast 302 348 10,900  Level Los Angeles Center
Sun 08:58:00 AM 34.9154 -118.4317 132° Southeast  Level FlightAware Approximate
Sun 08:58:44 AM 35.2472 -118.8247 137° Southeast 320 368 12,700  Level Los Angeles Center
Sun 08:59:00 AM 34.8360 -118.3258 132° Southeast  Level FlightAware Approximate
Sun 08:59:45 AM 35.1786 -118.7483 138° Southeast 328 377 14,200  Level Los Angeles Center
Sun 09:00:46 AM 35.1064 -118.6681 138° Southeast 345 397 15,600 1,388 Climbing Los Angeles Center
Sun 09:01:46 AM 35.0314 -118.5850 138° Southeast 359 413 17,000 1,250 Climbing Los Angeles Center
Sun 09:02:46 AM 34.9603 -118.4933 133° Southeast 370 426 18,100 1,200 Climbing Los Angeles Center
Sun 09:03:46 AM 34.9022 -118.3850 123° Southeast 394 453 19,400 1,339 Climbing Los Angeles Center
Sun 09:04:47 AM 34.9361 -118.2689 70° East 373 429 20,800 1,240 Climbing Los Angeles Center
Sun 09:05:47 AM 34.9803 -118.1539 65° Northeast 375 432 21,900 1,200 Climbing Los Angeles Center
Sun 09:06:47 AM 35.0253 -118.0381 65° Northeast 377 434 23,200 1,091 Climbing Los Angeles Center
Sun 09:07:48 AM 35.0692 -117.9217 65° Northeast 377 434 24,100 843 Climbing Los Angeles Center
Sun 09:08:48 AM 35.1167 -117.8000 64° Northeast 390 449 24,900 645 Climbing Los Angeles Center
Sun 09:09:49 AM 35.1658 -117.6711 65° Northeast 407 468 25,400 595 Climbing Los Angeles Center
Sun 09:10:49 AM 35.2161 -117.5367 65° Northeast 421 484 26,100 650 Climbing Los Angeles Center
Sun 09:11:49 AM 35.2650 -117.4044 66° East 422 486 26,700 545 Climbing Los Angeles Center
Sun 09:12:50 AM 35.3139 -117.2722 66° East 424 488 27,200 496 Climbing Los Angeles Center
Sun 09:13:50 AM 35.3636 -117.1389 65° Northeast 428 493 27,700 496 Climbing Los Angeles Center
Sun 09:14:51 AM 35.4142 -117.0036 65° Northeast 433 498 28,200 496 Climbing Los Angeles Center
Sun 09:15:51 AM 35.4639 -116.8678 66° East 436 502 28,700 496 Climbing Los Angeles Center
Sun 09:16:52 AM 35.5147 -116.7322 65° Northeast 437 503 29,200 496 Climbing Los Angeles Center
Sun 09:17:52 AM 35.5639 -116.5958 66° East 438 504 29,700 496 Climbing Los Angeles Center
Sun 09:18:53 AM 35.6142 -116.4603 65° Northeast 437 503 30,200 496 Climbing Los Angeles Center
Sun 09:19:53 AM 35.6642 -116.3239 66° East 439 505 30,700 496 Climbing Los Angeles Center
Sun 09:20:54 AM 35.7144 -116.1867 66° East 439 505 31,200 496 Climbing Los Angeles Center
Sun 09:21:54 AM 35.7642 -116.0497 66° East 441 507 31,700 496 Climbing Los Angeles Center
Sun 09:22:55 AM 35.8136 -115.9136 66° East 437 503 32,200 496 Climbing Los Angeles Center
Sun 09:23:55 AM 35.8639 -115.7708 66° East 437 503 32,700 397 Climbing Los Angeles Center
Sun 09:24:56 AM 35.9122 -115.6367 66° East 432 497 33,000 148 Climbing Los Angeles Center
Sun 09:25:57 AM 35.9600 -115.5006 67° East 437 503 33,000  Level Los Angeles Center
Sun 09:26:57 AM 36.0172 -115.3375 67° East 436 502 33,000  Level Los Angeles Center
Sun 09:27:58 AM 36.0656 -115.1989 67° East 442 509 33,000  Level Los Angeles Center
Sun 09:28:58 AM 36.1114 -115.0572 68° East 446 513 33,000  Level Los Angeles Center
Sun 09:29:59 AM 36.1544 -114.9147 69° East 445 512 33,000  Level Los Angeles Center
Sun 09:31:00 AM 36.1992 -114.7717 69° East 447 514 33,000  Level Los Angeles Center
Sun 09:32:00 AM 36.2419 -114.6267 70° East 449 517 33,000  Level Los Angeles Center
Sun 09:33:01 AM 36.2867 -114.4825 69° East 449 517 33,000  Level Los Angeles Center
Sun 09:34:02 AM 36.3303 -114.3378 69° East 449 517 33,000  Level Los Angeles Center
Sun 09:35:02 AM 36.3733 -114.1925 70° East 451 519 33,000  Level Los Angeles Center
Sun 09:36:03 AM 36.4172 -114.0467 69° East 451 519 33,000  Level Los Angeles Center
Sun 09:37:04 AM 36.4614 -113.9003 69° East 453 521 33,000  Level Los Angeles Center
Sun 09:38:05 AM 36.5089 -113.7397 70° East 453 521 33,000  Level Los Angeles Center
Sun 09:39:05 AM 36.5514 -113.5925 70° East 454 522 33,000  Level Los Angeles Center
Sun 09:40:06 AM 36.5956 -113.4461 69° East 455 524 33,000  Level Los Angeles Center
Sun 09:41:07 AM 36.6378 -113.2986 70° East 454 522 33,000  Level Los Angeles Center
Sun 09:42:08 AM 36.6806 -113.1508 70° East 456 525 33,000  Level Los Angeles Center
Sun 09:43:09 AM 36.7231 -113.0050 70° East 452 520 33,000  Level Los Angeles Center
Sun 09:44:09 AM 36.7653 -112.8575 70° East 454 522 33,000  Level Los Angeles Center
Sun 09:45:10 AM 36.8081 -112.7089 70° East 457 526 33,000  Level Los Angeles Center
Sun 09:46:11 AM 36.8583 -112.5308 71° East 456 525 33,000  Level Los Angeles Center
Sun 09:47:12 AM 36.8997 -112.3817 71° East 456 525 33,000  Level Los Angeles Center
Sun 09:48:13 AM 36.9422 -112.2331 70° East 458 527 33,000  Level Los Angeles Center
Sun 09:49:14 AM 36.9839 -112.0836 71° East 458 527 33,000  Level Los Angeles Center
Sun 09:49:31 AM 36.9936 -112.0525 69° East 460 529 33,000  Level Denver Center
Sun 09:50:32 AM 37.0361 -111.9019 70° East 461 531 33,000  Level Denver Center
Sun 09:51:32 AM 37.0772 -111.7511 71° East 461 531 33,000  Level Denver Center
Sun 09:52:33 AM 37.1283 -111.5703 70° East 462 532 33,000  Level Denver Center
Sun 09:53:34 AM 37.1664 -111.4203 72° East 457 526 33,000  Level Denver Center
Sun 09:54:35 AM 37.2075 -111.2681 71° East 463 533 33,000  Level Denver Center
Sun 09:55:48 AM 37.2478 -111.1153 72° East 464 534 33,000  Level Denver Center
Sun 09:56:49 AM 37.2997 -110.9292 71° East 471 542 33,000  Level Denver Center
Sun 09:57:50 AM 37.3383 -110.7767 72° East 466 536 33,000  Level Denver Center
Sun 09:58:51 AM 37.3800 -110.6208 71° East 470 541 33,000  Level Denver Center
Sun 09:59:52 AM 37.4206 -110.4647 72° East 472 543 33,000  Level Denver Center
Sun 10:00:54 AM 37.4603 -110.3092 72° East 470 541 33,000  Level Denver Center
Sun 10:01:55 AM 37.5083 -110.1281 71° East 476 548 33,000  Level Denver Center
Sun 10:02:56 AM 37.5469 -109.9744 72° East 479 551 33,000  Level Denver Center
Sun 10:03:57 AM 37.5856 -109.8214 72° East 478 550 33,000  Level Denver Center
Sun 10:04:58 AM 37.6308 -109.6419 72° East 481 554 33,000  Level Denver Center
Sun 10:05:59 AM 37.6831 -109.4978 65° Northeast 473 544 33,000  Level Denver Center
Sun 10:07:13 AM 37.7467 -109.3589 60° Northeast 475 547 33,000  Level Denver Center
Sun 10:08:14 AM 37.8306 -109.1717 60° Northeast 478 550 33,000  Level Denver Center
Sun 10:09:15 AM 37.9050 -109.0053 60° Northeast 485 558 33,000  Level Denver Center
Sun 10:10:17 AM 37.9672 -108.8642 61° Northeast 480 552 33,000  Level Denver Center
Sun 10:11:18 AM 38.0306 -108.7239 60° Northeast 478 550 33,000  Level Denver Center
Sun 10:12:20 AM 38.1025 -108.5592 61° Northeast 488 562 33,000  Level Denver Center
Sun 10:13:21 AM 38.1639 -108.4172 61° Northeast 484 557 33,000  Level Denver Center
Sun 10:14:22 AM 38.2367 -108.2533 60° Northeast 479 551 33,000  Level Denver Center
Sun 10:15:24 AM 38.2986 -108.1100 61° Northeast 482 555 33,000  Level Denver Center
Sun 10:16:25 AM 38.3711 -107.9444 61° Northeast 481 554 33,000  Level Denver Center
Sun 10:17:27 AM 38.4331 -107.8014 61° Northeast 482 555 33,000  Level Denver Center
Sun 10:18:28 AM 38.4947 -107.6575 61° Northeast 482 555 33,000  Level Denver Center
Sun 10:19:30 AM 38.5658 -107.4900 61° Northeast 483 556 33,000  Level Denver Center
Sun 10:20:31 AM 38.6278 -107.3450 61° Northeast 486 559 33,000  Level Denver Center
Sun 10:21:33 AM 38.6997 -107.1742 62° Northeast 488 562 33,000  Level Denver Center
Sun 10:22:34 AM 38.7569 -107.0414 61° Northeast 490 564 33,000  Level Denver Center
Sun 10:23:36 AM 38.8206 -106.8867 62° Northeast 493 567 33,000  Level Denver Center
Sun 10:24:38 AM 38.8964 -106.7075 61° Northeast 492 566 33,000  Level Denver Center
Sun 10:25:39 AM 38.9564 -106.5589 63° Northeast 490 564 33,000 -1,220 Level Denver Center
Sun 10:26:41 AM 39.0297 -106.3839 62° Northeast 495 570 30,500 -2,244 Descending Denver Center
Sun 10:27:42 AM 39.0881 -106.2411 62° Northeast 478 550 28,400 -2,000 Descending Denver Center
Sun 10:28:44 AM 39.1508 -106.0881 62° Northeast 464 534 26,400 -1,935 Descending Denver Center
Sun 10:29:46 AM 39.2097 -105.9417 63° Northeast 459 528 24,400 -1,887 Descending Denver Center
Sun 10:30:48 AM 39.2653 -105.8019 63° Northeast 437 503 22,500 -1,805 Descending Denver Center
Sun 10:31:49 AM 39.3158 -105.6747 63° Northeast 403 464 20,700 -1,659 Descending Denver Center
Sun 10:32:51 AM 39.3631 -105.5575 62° Northeast 368 423 19,100 -1,500 Descending Denver Center
Sun 10:33:53 AM 39.3983 -105.4272 71° East 347 399 17,600 -1,403 Descending Denver Center
Sun 10:34:55 AM 39.4031 -105.3008 87° East 327 376 16,200 -1,317 Descending Denver Center
Sun 10:35:56 AM 39.4075 -105.1906 87° East 311 358 14,900 -1,073 Descending Denver Center
Sun 10:36:58 AM 39.4128 -105.0878 86° East 291 335 14,000 -823 Descending Denver Center
Sun 10:38:00 AM 39.4267 -104.9878 80° East 266 306 13,200 -726 Descending Denver Center
Sun 10:39:02 AM 39.4544 -104.8994 68° East 266 306 12,500 -581 Descending Denver Center
Sun 10:40:04 AM 39.4808 -104.8064 70° East 257 296 12,000 -581 Descending Denver Center
Sun 10:41:06 AM 39.5297 -104.7472 43° Northeast 253 291 11,300 -927 Descending Denver Center
Sun 10:42:07 AM 39.5925 -104.7236 16° North 236 272 10,100 -1,366 Descending Denver Center
Sun 10:43:09 AM 39.6597 -104.6969 17° North 235 270 8,500 -1,548 Descending Denver Center

Login

Don't have an account? Register now (free) for customized features, flight alerts, and more!